sensor_id;sensor_type;location;lat;lon;timestamp;pressure;altitude;pressure_sealevel;temperature;humidity
9225;BME280;4647;48.072;11.616;2023-12-14T00:00:59;94185.19;;;5.30;96.94
9225;BME280;4647;48.072;11.616;2023-12-14T00:03:27;94181.47;;;5.20;96.99
9225;BME280;4647;48.072;11.616;2023-12-14T00:09:09;94171.97;;;5.12;98.11
9225;BME280;4647;48.072;11.616;2023-12-14T00:11:38;94182.63;;;5.22;97.71
9225;BME280;4647;48.072;11.616;2023-12-14T00:14:07;94186.63;;;5.07;98.38
9225;BME280;4647;48.072;11.616;2023-12-14T00:16:35;94185.00;;;4.79;99.61
9225;BME280;4647;48.072;11.616;2023-12-14T00:19:04;94187.63;;;4.83;99.69
9225;BME280;4647;48.072;11.616;2023-12-14T00:21:32;94195.31;;;4.81;99.70
9225;BME280;4647;48.072;11.616;2023-12-14T00:24:00;94205.59;;;4.89;99.60
9225;BME280;4647;48.072;11.616;2023-12-14T00:26:31;94204.41;;;4.90;100.00
9225;BME280;4647;48.072;11.616;2023-12-14T00:29:00;94194.88;;;4.86;100.00
9225;BME280;4647;48.072;11.616;2023-12-14T00:31:28;94202.06;;;4.96;100.00
9225;BME280;4647;48.072;11.616;2023-12-14T00:33:57;94198.88;;;5.08;99.29
9225;BME280;4647;48.072;11.616;2023-12-14T00:36:25;94202.81;;;4.97;99.89
9225;BME280;4647;48.072;11.616;2023-12-14T00:38:54;94206.38;;;4.86;100.00
9225;BME280;4647;48.072;11.616;2023-12-14T00:41:22;94208.63;;;4.91;100.00
9225;BME280;4647;48.072;11.616;2023-12-14T00:43:53;94212.91;;;4.85;100.00
9225;BME280;4647;48.072;11.616;2023-12-14T00:46:22;94218.19;;;4.92;100.00
9225;BME280;4647;48.072;11.616;2023-12-14T00:48:50;94218.06;;;5.07;100.00
9225;BME280;4647;48.072;11.616;2023-12-14T00:51:19;94226.84;;;5.11;99.58
9225;BME280;4647;48.072;11.616;2023-12-14T00:53:47;94229.28;;;4.94;100.00
9225;BME280;4647;48.072;11.616;2023-12-14T00:56:16;94228.75;;;5.10;100.00
9225;BME280;4647;48.072;11.616;2023-12-14T00:58:44;94231.94;;;5.02;100.00
9225;BME280;4647;48.072;11.616;2023-12-14T01:01:15;94240.78;;;4.99;100.00
9225;BME280;4647;48.072;11.616;2023-12-14T01:03:43;94244.91;;;5.07;100.00
9225;BME280;4647;48.072;11.616;2023-12-14T01:06:12;94256.38;;;5.11;100.00
9225;BME280;4647;48.072;11.616;2023-12-14T01:08:40;94258.97;;;5.21;100.00
9225;BME280;4647;48.072;11.616;2023-12-14T01:11:09;94270.06;;;5.20;100.00
9225;BME280;4647;48.072;11.616;2023-12-14T01:13:38;94261.66;;;5.18;100.00
9225;BME280;4647;48.072;11.616;2023-12-14T01:16:07;94274.75;;;5.12;100.00
9225;BME280;4647;48.072;11.616;2023-12-14T01:18:38;94274.72;;;5.16;100.00
9225;BME280;4647;48.072;11.616;2023-12-14T01:21:06;94280.06;;;5.19;100.00
9225;BME280;4647;48.072;11.616;2023-12-14T01:23:32;94284.28;;;5.17;100.00
9225;BME280;4647;48.072;11.616;2023-12-14T01:29:11;94290.53;;;5.07;100.00
9225;BME280;4647;48.072;11.616;2023-12-14T01:31:40;94294.06;;;5.00;100.00
9225;BME280;4647;48.072;11.616;2023-12-14T01:34:11;94290.06;;;5.15;100.00
9225;BME280;4647;48.072;11.616;2023-12-14T01:36:41;94296.91;;;5.20;100.00
9225;BME280;4647;48.072;11.616;2023-12-14T01:39:09;94305.00;;;5.16;100.00
9225;BME280;4647;48.072;11.616;2023-12-14T01:41:38;94307.66;;;5.23;100.00
9225;BME280;4647;48.072;11.616;2023-12-14T01:44:06;94310.78;;;5.15;100.00
9225;BME280;4647;48.072;11.616;2023-12-14T01:46:35;94301.56;;;5.16;100.00
9225;BME280;4647;48.072;11.616;2023-12-14T01:49:03;94315.28;;;5.29;100.00
9225;BME280;4647;48.072;11.616;2023-12-14T01:51:36;94308.06;;;5.22;100.00
9225;BME280;4647;48.072;11.616;2023-12-14T01:54:04;94315.22;;;5.32;100.00
9225;BME280;4647;48.072;11.616;2023-12-14T01:56:33;94315.34;;;5.21;100.00
9225;BME280;4647;48.072;11.616;2023-12-14T01:59:01;94323.38;;;5.25;100.00
9225;BME280;4647;48.072;11.616;2023-12-14T02:01:34;94325.28;;;5.24;100.00
9225;BME280;4647;48.072;11.616;2023-12-14T02:04:05;94327.13;;;5.31;100.00
9225;BME280;4647;48.072;11.616;2023-12-14T02:06:37;94334.47;;;5.27;100.00
9225;BME280;4647;48.072;11.616;2023-12-14T02:09:06;94340.63;;;5.24;100.00
9225;BME280;4647;48.072;11.616;2023-12-14T02:11:35;94345.06;;;5.41;100.00
9225;BME280;4647;48.072;11.616;2023-12-14T02:14:04;94353.88;;;5.45;99.67
9225;BME280;4647;48.072;11.616;2023-12-14T02:16:33;94353.47;;;5.47;99.79
9225;BME280;4647;48.072;11.616;2023-12-14T02:19:03;94347.81;;;5.34;100.00
9225;BME280;4647;48.072;11.616;2023-12-14T02:21:32;94352.88;;;5.29;100.00
9225;BME280;4647;48.072;11.616;2023-12-14T02:24:03;94352.94;;;5.21;100.00
9225;BME280;4647;48.072;11.616;2023-12-14T02:26:32;94358.72;;;5.16;100.00
9225;BME280;4647;48.072;11.616;2023-12-14T02:29:00;94365.72;;;5.07;100.00
9225;BME280;4647;48.072;11.616;2023-12-14T02:31:29;94365.81;;;4.92;100.00
9225;BME280;4647;48.072;11.616;2023-12-14T02:33:57;94363.44;;;5.05;100.00
9225;BME280;4647;48.072;11.616;2023-12-14T02:36:26;94371.50;;;5.02;100.00
9225;BME280;4647;48.072;11.616;2023-12-14T02:38:54;94367.47;;;4.79;100.00
9225;BME280;4647;48.072;11.616;2023-12-14T02:41:25;94370.13;;;4.83;100.00
9225;BME280;4647;48.072;11.616;2023-12-14T02:43:54;94369.72;;;4.84;100.00
9225;BME280;4647;48.072;11.616;2023-12-14T02:46:22;94376.63;;;4.82;100.00
9225;BME280;4647;48.072;11.616;2023-12-14T02:48:51;94388.56;;;4.77;100.00
9225;BME280;4647;48.072;11.616;2023-12-14T02:51:19;94392.34;;;4.83;100.00
9225;BME280;4647;48.072;11.616;2023-12-14T02:53:47;94391.97;;;4.81;100.00
9225;BME280;4647;48.072;11.616;2023-12-14T02:56:16;94400.09;;;4.74;100.00
9225;BME280;4647;48.072;11.616;2023-12-14T02:58:47;94401.56;;;4.82;100.00
9225;BME280;4647;48.072;11.616;2023-12-14T03:01:18;94398.91;;;4.75;100.00
9225;BME280;4647;48.072;11.616;2023-12-14T03:03:44;94405.84;;;4.69;100.00
9225;BME280;4647;48.072;11.616;2023-12-14T03:06:12;94406.94;;;4.79;100.00
9225;BME280;4647;48.072;11.616;2023-12-14T03:08:41;94415.69;;;4.86;100.00
9225;BME280;4647;48.072;11.616;2023-12-14T03:11:09;94416.09;;;4.85;100.00
9225;BME280;4647;48.072;11.616;2023-12-14T03:13:38;94419.97;;;4.80;100.00
9225;BME280;4647;48.072;11.616;2023-12-14T03:16:09;94422.69;;;4.73;100.00
9225;BME280;4647;48.072;11.616;2023-12-14T03:18:37;94431.50;;;4.77;100.00
9225;BME280;4647;48.072;11.616;2023-12-14T03:21:06;94430.34;;;4.78;100.00
9225;BME280;4647;48.072;11.616;2023-12-14T03:23:34;94425.41;;;4.66;100.00
9225;BME280;4647;48.072;11.616;2023-12-14T03:26:03;94425.06;;;4.60;100.00
9225;BME280;4647;48.072;11.616;2023-12-14T03:28:32;94425.81;;;4.65;100.00
9225;BME280;4647;48.072;11.616;2023-12-14T03:31:00;94430.69;;;4.80;100.00
9225;BME280;4647;48.072;11.616;2023-12-14T03:33:31;94438.00;;;4.73;100.00
9225;BME280;4647;48.072;11.616;2023-12-14T03:36:00;94441.06;;;4.78;100.00
9225;BME280;4647;48.072;11.616;2023-12-14T03:38:28;94444.44;;;4.89;100.00
9225;BME280;4647;48.072;11.616;2023-12-14T03:40:57;94450.63;;;4.79;100.00
9225;BME280;4647;48.072;11.616;2023-12-14T03:43:26;94461.44;;;4.65;100.00
9225;BME280;4647;48.072;11.616;2023-12-14T03:45:55;94456.00;;;4.79;100.00
9225;BME280;4647;48.072;11.616;2023-12-14T03:48:23;94465.22;;;4.78;100.00
9225;BME280;4647;48.072;11.616;2023-12-14T03:50:54;94466.00;;;4.75;100.00
9225;BME280;4647;48.072;11.616;2023-12-14T03:53:22;94469.06;;;4.77;100.00
9225;BME280;4647;48.072;11.616;2023-12-14T03:55:51;94473.22;;;4.85;100.00
9225;BME280;4647;48.072;11.616;2023-12-14T03:58:19;94475.81;;;5.00;100.00
9225;BME280;4647;48.072;11.616;2023-12-14T04:00:48;94482.78;;;4.86;100.00
9225;BME280;4647;48.072;11.616;2023-12-14T04:03:16;94483.59;;;4.80;100.00
9225;BME280;4647;48.072;11.616;2023-12-14T04:05:45;94484.69;;;4.89;100.00
9225;BME280;4647;48.072;11.616;2023-12-14T04:08:16;94486.69;;;4.78;100.00
9225;BME280;4647;48.072;11.616;2023-12-14T04:10:44;94494.78;;;4.64;100.00
9225;BME280;4647;48.072;11.616;2023-12-14T04:13:13;94498.59;;;4.67;100.00
9225;BME280;4647;48.072;11.616;2023-12-14T04:15:42;94503.56;;;4.68;100.00
9225;BME280;4647;48.072;11.616;2023-12-14T04:18:10;94509.31;;;4.70;100.00
9225;BME280;4647;48.072;11.616;2023-12-14T04:20:38;94515.91;;;4.55;100.00
9225;BME280;4647;48.072;11.616;2023-12-14T04:23:07;94518.19;;;4.60;100.00
9225;BME280;4647;48.072;11.616;2023-12-14T04:25:38;94520.09;;;4.63;100.00
9225;BME280;4647;48.072;11.616;2023-12-14T04:28:06;94533.13;;;4.61;100.00
9225;BME280;4647;48.072;11.616;2023-12-14T04:30:35;94536.97;;;4.60;100.00
9225;BME280;4647;48.072;11.616;2023-12-14T04:33:03;94537.31;;;4.69;100.00
9225;BME280;4647;48.072;11.616;2023-12-14T04:35:32;94542.72;;;4.58;100.00
9225;BME280;4647;48.072;11.616;2023-12-14T04:38:01;94550.38;;;4.60;100.00
9225;BME280;4647;48.072;11.616;2023-12-14T04:40:30;94553.88;;;4.43;100.00
9225;BME280;4647;48.072;11.616;2023-12-14T04:43:01;94547.72;;;4.53;100.00
9225;BME280;4647;48.072;11.616;2023-12-14T04:45:32;94554.63;;;4.54;100.00
9225;BME280;4647;48.072;11.616;2023-12-14T04:48:00;94557.31;;;4.54;100.00
9225;BME280;4647;48.072;11.616;2023-12-14T04:50:29;94564.91;;;4.73;100.00
9225;BME280;4647;48.072;11.616;2023-12-14T04:52:57;94566.47;;;4.63;100.00
9225;BME280;4647;48.072;11.616;2023-12-14T04:55:25;94565.31;;;4.61;100.00
9225;BME280;4647;48.072;11.616;2023-12-14T04:57:54;94571.84;;;4.56;100.00
9225;BME280;4647;48.072;11.616;2023-12-14T05:00:25;94566.09;;;4.61;100.00
9225;BME280;4647;48.072;11.616;2023-12-14T05:02:53;94574.91;;;4.58;100.00
9225;BME280;4647;48.072;11.616;2023-12-14T05:05:22;94583.31;;;4.64;100.00
9225;BME280;4647;48.072;11.616;2023-12-14T05:07:50;94589.06;;;4.73;100.00
9225;BME280;4647;48.072;11.616;2023-12-14T05:10:19;94594.47;;;4.48;100.00
9225;BME280;4647;48.072;11.616;2023-12-14T05:12:47;94594.44;;;4.66;100.00
9225;BME280;4647;48.072;11.616;2023-12-14T05:15:15;94604.03;;;4.60;100.00
9225;BME280;4647;48.072;11.616;2023-12-14T05:17:47;94604.81;;;4.57;100.00
9225;BME280;4647;48.072;11.616;2023-12-14T05:20:16;94605.53;;;4.65;100.00
9225;BME280;4647;48.072;11.616;2023-12-14T05:22:46;94604.75;;;4.78;99.18
9225;BME280;4647;48.072;11.616;2023-12-14T05:25:14;94607.09;;;4.62;99.85
9225;BME280;4647;48.072;11.616;2023-12-14T05:27:42;94616.69;;;4.49;100.00
9225;BME280;4647;48.072;11.616;2023-12-14T05:30:12;94623.97;;;4.45;100.00
9225;BME280;4647;48.072;11.616;2023-12-14T05:32:40;94627.03;;;4.54;100.00
9225;BME280;4647;48.072;11.616;2023-12-14T05:35:11;94624.75;;;4.42;100.00
9225;BME280;4647;48.072;11.616;2023-12-14T05:37:40;94628.19;;;4.42;100.00
9225;BME280;4647;48.072;11.616;2023-12-14T05:40:10;94634.75;;;4.30;100.00
9225;BME280;4647;48.072;11.616;2023-12-14T05:42:38;94641.63;;;4.39;100.00
9225;BME280;4647;48.072;11.616;2023-12-14T05:45:08;94644.31;;;4.21;100.00
9225;BME280;4647;48.072;11.616;2023-12-14T05:47:36;94655.41;;;4.34;100.00
9225;BME280;4647;48.072;11.616;2023-12-14T05:50:07;94661.94;;;4.36;100.00
9225;BME280;4647;48.072;11.616;2023-12-14T05:52:39;94660.38;;;4.39;100.00
9225;BME280;4647;48.072;11.616;2023-12-14T05:55:09;94664.22;;;4.45;100.00
9225;BME280;4647;48.072;11.616;2023-12-14T05:57:38;94671.47;;;4.62;100.00
9225;BME280;4647;48.072;11.616;2023-12-14T06:00:07;94674.16;;;4.58;100.00
9225;BME280;4647;48.072;11.616;2023-12-14T06:02:36;94683.38;;;4.50;100.00
9225;BME280;4647;48.072;11.616;2023-12-14T06:05:06;94686.41;;;4.63;100.00
9225;BME280;4647;48.072;11.616;2023-12-14T06:07:35;94689.13;;;4.42;100.00
9225;BME280;4647;48.072;11.616;2023-12-14T06:10:07;94697.56;;;4.54;100.00
9225;BME280;4647;48.072;11.616;2023-12-14T06:12:35;94702.91;;;4.40;100.00
9225;BME280;4647;48.072;11.616;2023-12-14T06:15:06;94702.13;;;4.47;100.00
9225;BME280;4647;48.072;11.616;2023-12-14T06:17:34;94708.66;;;4.39;100.00
9225;BME280;4647;48.072;11.616;2023-12-14T06:20:06;94720.53;;;4.38;100.00
9225;BME280;4647;48.072;11.616;2023-12-14T06:22:35;94717.47;;;4.36;100.00
9225;BME280;4647;48.072;11.616;2023-12-14T06:25:08;94723.22;;;4.38;100.00
9225;BME280;4647;48.072;11.616;2023-12-14T06:27:36;94726.28;;;4.32;100.00
9225;BME280;4647;48.072;11.616;2023-12-14T06:30:06;94723.97;;;4.42;100.00
9225;BME280;4647;48.072;11.616;2023-12-14T06:32:36;94735.09;;;4.33;100.00
9225;BME280;4647;48.072;11.616;2023-12-14T06:35:05;94736.63;;;4.48;100.00
9225;BME280;4647;48.072;11.616;2023-12-14T06:37:34;94735.47;;;4.42;100.00
9225;BME280;4647;48.072;11.616;2023-12-14T06:40:03;94740.84;;;4.39;100.00
9225;BME280;4647;48.072;11.616;2023-12-14T06:42:34;94750.44;;;4.50;100.00
9225;BME280;4647;48.072;11.616;2023-12-14T06:45:04;94758.84;;;4.63;100.00
9225;BME280;4647;48.072;11.616;2023-12-14T06:47:33;94753.47;;;4.42;100.00
9225;BME280;4647;48.072;11.616;2023-12-14T06:50:01;94761.91;;;4.47;100.00
9225;BME280;4647;48.072;11.616;2023-12-14T06:52:29;94763.47;;;4.59;100.00
9225;BME280;4647;48.072;11.616;2023-12-14T06:54:58;94773.81;;;4.64;100.00
9225;BME280;4647;48.072;11.616;2023-12-14T06:57:26;94771.50;;;4.66;100.00
9225;BME280;4647;48.072;11.616;2023-12-14T06:59:57;94778.41;;;4.71;100.00
9225;BME280;4647;48.072;11.616;2023-12-14T07:02:26;94779.53;;;4.70;100.00
9225;BME280;4647;48.072;11.616;2023-12-14T07:04:54;94788.00;;;4.75;100.00
9225;BME280;4647;48.072;11.616;2023-12-14T07:07:22;94790.28;;;4.80;100.00
9225;BME280;4647;48.072;11.616;2023-12-14T07:09:51;94794.50;;;4.78;100.00
9225;BME280;4647;48.072;11.616;2023-12-14T07:12:19;94798.72;;;4.86;100.00
9225;BME280;4647;48.072;11.616;2023-12-14T07:14:48;94810.22;;;4.72;100.00
9225;BME280;4647;48.072;11.616;2023-12-14T07:17:19;94819.44;;;4.78;100.00
9225;BME280;4647;48.072;11.616;2023-12-14T07:19:47;94806.78;;;4.79;100.00
9225;BME280;4647;48.072;11.616;2023-12-14T07:22:16;94823.66;;;4.83;100.00
9225;BME280;4647;48.072;11.616;2023-12-14T07:24:44;94815.59;;;4.79;100.00
9225;BME280;4647;48.072;11.616;2023-12-14T07:27:12;94825.16;;;4.70;100.00
9225;BME280;4647;48.072;11.616;2023-12-14T07:29:41;94822.09;;;4.85;100.00
9225;BME280;4647;48.072;11.616;2023-12-14T07:32:09;94830.91;;;4.93;100.00
9225;BME280;4647;48.072;11.616;2023-12-14T07:34:40;94835.91;;;4.94;100.00
9225;BME280;4647;48.072;11.616;2023-12-14T07:37:09;94844.34;;;4.82;100.00
9225;BME280;4647;48.072;11.616;2023-12-14T07:39:38;94847.03;;;4.82;100.00
9225;BME280;4647;48.072;11.616;2023-12-14T07:42:07;94853.16;;;4.93;100.00
9225;BME280;4647;48.072;11.616;2023-12-14T07:44:35;94855.47;;;4.99;100.00
9225;BME280;4647;48.072;11.616;2023-12-14T07:47:06;94859.69;;;5.14;100.00
9225;BME280;4647;48.072;11.616;2023-12-14T07:49:34;94870.03;;;5.12;100.00
9225;BME280;4647;48.072;11.616;2023-12-14T07:52:06;94870.78;;;5.19;100.00
9225;BME280;4647;48.072;11.616;2023-12-14T07:54:35;94865.44;;;5.27;100.00
9225;BME280;4647;48.072;11.616;2023-12-14T07:57:03;94874.63;;;5.33;100.00
9225;BME280;4647;48.072;11.616;2023-12-14T07:59:32;94879.63;;;5.45;100.00
9225;BME280;4647;48.072;11.616;2023-12-14T08:02:00;94885.00;;;5.48;99.54
9225;BME280;4647;48.072;11.616;2023-12-14T08:04:29;94884.22;;;5.51;99.85
9225;BME280;4647;48.072;11.616;2023-12-14T08:06:59;94886.88;;;5.59;99.09
9225;BME280;4647;48.072;11.616;2023-12-14T08:09:30;94885.72;;;5.56;99.39
9225;BME280;4647;48.072;11.616;2023-12-14T08:11:58;94890.69;;;5.65;98.72
9225;BME280;4647;48.072;11.616;2023-12-14T08:14:26;94899.13;;;5.67;98.76
9225;BME280;4647;48.072;11.616;2023-12-14T08:16:55;94899.53;;;5.69;98.64
9225;BME280;4647;48.072;11.616;2023-12-14T08:19:23;94902.22;;;5.65;98.86
9225;BME280;4647;48.072;11.616;2023-12-14T08:21:51;94902.22;;;5.65;98.91
9225;BME280;4647;48.072;11.616;2023-12-14T08:24:20;94906.06;;;5.71;98.63
9225;BME280;4647;48.072;11.616;2023-12-14T08:26:51;94916.81;;;5.75;98.47
9225;BME280;4647;48.072;11.616;2023-12-14T08:29:19;94917.22;;;5.70;98.51
9225;BME280;4647;48.072;11.616;2023-12-14T08:31:48;94927.16;;;5.80;98.12
9225;BME280;4647;48.072;11.616;2023-12-14T08:34:16;94934.47;;;5.62;99.12
9225;BME280;4647;48.072;11.616;2023-12-14T08:36:45;94934.06;;;5.67;99.00
9225;BME280;4647;48.072;11.616;2023-12-14T08:39:13;94942.94;;;5.71;98.89
9225;BME280;4647;48.072;11.616;2023-12-14T08:41:42;94944.47;;;5.61;98.94
9225;BME280;4647;48.072;11.616;2023-12-14T08:44:13;94947.16;;;5.54;99.42
9225;BME280;4647;48.072;11.616;2023-12-14T08:46:43;94962.13;;;5.59;99.57
9225;BME280;4647;48.072;11.616;2023-12-14T08:49:13;94965.97;;;5.58;98.83
9225;BME280;4647;48.072;11.616;2023-12-14T08:51:42;94969.03;;;5.60;98.94
9225;BME280;4647;48.072;11.616;2023-12-14T08:54:11;94971.31;;;5.61;99.29
9225;BME280;4647;48.072;11.616;2023-12-14T08:56:39;94975.16;;;5.60;98.99
9225;BME280;4647;48.072;11.616;2023-12-14T08:59:08;94977.50;;;5.69;98.99
9225;BME280;4647;48.072;11.616;2023-12-14T09:01:39;94971.69;;;5.81;98.84
9225;BME280;4647;48.072;11.616;2023-12-14T09:04:05;94983.63;;;5.94;98.24
9225;BME280;4647;48.072;11.616;2023-12-14T09:06:33;94979.78;;;5.95;97.16
9225;BME280;4647;48.072;11.616;2023-12-14T09:09:01;94983.63;;;6.01;96.91
9225;BME280;4647;48.072;11.616;2023-12-14T09:11:30;94994.34;;;5.83;97.49
9225;BME280;4647;48.072;11.616;2023-12-14T09:14:00;94992.44;;;5.84;97.83
9225;BME280;4647;48.072;11.616;2023-12-14T09:16:28;94993.59;;;5.83;97.69
9225;BME280;4647;48.072;11.616;2023-12-14T09:19:00;94992.06;;;5.71;97.92
9225;BME280;4647;48.072;11.616;2023-12-14T09:21:28;95000.88;;;5.86;97.89
9225;BME280;4647;48.072;11.616;2023-12-14T09:23:57;95001.66;;;5.62;98.34
9225;BME280;4647;48.072;11.616;2023-12-14T09:26:26;95004.34;;;5.76;98.20
9225;BME280;4647;48.072;11.616;2023-12-14T09:28:55;95018.94;;;5.85;98.14
9225;BME280;4647;48.072;11.616;2023-12-14T09:31:23;95024.28;;;5.89;97.57
9225;BME280;4647;48.072;11.616;2023-12-14T09:33:52;95035.47;;;5.91;97.25
9225;BME280;4647;48.072;11.616;2023-12-14T09:36:23;95027.75;;;5.82;97.75
9225;BME280;4647;48.072;11.616;2023-12-14T09:38:51;95030.06;;;5.80;97.88
9225;BME280;4647;48.072;11.616;2023-12-14T09:41:19;95030.47;;;5.72;98.97
9225;BME280;4647;48.072;11.616;2023-12-14T09:43:48;95043.50;;;5.88;97.79
9225;BME280;4647;48.072;11.616;2023-12-14T09:46:17;95034.28;;;5.67;98.72
9225;BME280;4647;48.072;11.616;2023-12-14T09:48:46;95045.44;;;5.80;98.78
9225;BME280;4647;48.072;11.616;2023-12-14T09:51:15;95041.22;;;5.72;98.88
9225;BME280;4647;48.072;11.616;2023-12-14T09:53:47;95044.31;;;5.95;98.23
9225;BME280;4647;48.072;11.616;2023-12-14T09:56:16;95048.13;;;6.08;97.74
9225;BME280;4647;48.072;11.616;2023-12-14T09:58:44;95050.47;;;5.92;97.90
9225;BME280;4647;48.072;11.616;2023-12-14T10:01:23;95050.03;;;5.86;98.50
9225;BME280;4647;48.072;11.616;2023-12-14T10:04:07;95055.06;;;5.95;98.02
9225;BME280;4647;48.072;11.616;2023-12-14T10:06:36;95058.09;;;5.76;98.40
9225;BME280;4647;48.072;11.616;2023-12-14T10:09:07;95060.81;;;6.01;97.57
9225;BME280;4647;48.072;11.616;2023-12-14T10:11:39;95057.38;;;6.04;97.72
9225;BME280;4647;48.072;11.616;2023-12-14T10:14:18;95058.88;;;6.12;97.15
9225;BME280;4647;48.072;11.616;2023-12-14T10:16:48;95062.72;;;6.14;97.17
9225;BME280;4647;48.072;11.616;2023-12-14T10:19:17;95060.41;;;6.31;95.98
9225;BME280;4647;48.072;11.616;2023-12-14T10:21:47;95063.47;;;6.33;95.18
9225;BME280;4647;48.072;11.616;2023-12-14T10:24:19;95063.47;;;6.36;95.32
9225;BME280;4647;48.072;11.616;2023-12-14T10:26:48;95065.81;;;6.24;95.11
9225;BME280;4647;48.072;11.616;2023-12-14T10:29:18;95059.63;;;6.34;94.66
9225;BME280;4647;48.072;11.616;2023-12-14T10:31:47;95063.13;;;6.02;96.21
9225;BME280;4647;48.072;11.616;2023-12-14T10:34:16;95054.28;;;6.16;96.52
9225;BME280;4647;48.072;11.616;2023-12-14T10:36:45;95052.00;;;6.00;97.32
9225;BME280;4647;48.072;11.616;2023-12-14T10:39:14;95061.19;;;6.28;96.11
9225;BME280;4647;48.072;11.616;2023-12-14T10:41:47;95053.13;;;6.24;95.93
9225;BME280;4647;48.072;11.616;2023-12-14T10:44:16;95058.50;;;6.13;95.85
9225;BME280;4647;48.072;11.616;2023-12-14T10:46:48;95064.28;;;6.05;96.28
9225;BME280;4647;48.072;11.616;2023-12-14T10:49:17;95066.19;;;6.15;96.47
9225;BME280;4647;48.072;11.616;2023-12-14T10:51:46;95072.34;;;6.23;96.05
9225;BME280;4647;48.072;11.616;2023-12-14T10:54:15;95075.00;;;6.30;95.61
9225;BME280;4647;48.072;11.616;2023-12-14T10:56:47;95081.16;;;6.27;95.38
9225;BME280;4647;48.072;11.616;2023-12-14T10:59:16;95084.25;;;6.25;96.10
9225;BME280;4647;48.072;11.616;2023-12-14T11:01:44;95087.34;;;6.20;96.47
9225;BME280;4647;48.072;11.616;2023-12-14T11:04:13;95097.31;;;6.12;96.44
9225;BME280;4647;48.072;11.616;2023-12-14T11:06:42;95102.69;;;6.27;95.75
9225;BME280;4647;48.072;11.616;2023-12-14T11:09:12;95096.16;;;6.28;95.49
9225;BME280;4647;48.072;11.616;2023-12-14T11:11:42;95101.91;;;6.40;95.56
9225;BME280;4647;48.072;11.616;2023-12-14T11:14:14;95107.69;;;6.32;94.97
9225;BME280;4647;48.072;11.616;2023-12-14T11:16:44;95111.13;;;6.29;94.11
9225;BME280;4647;48.072;11.616;2023-12-14T11:19:29;95111.16;;;6.07;94.70
9225;BME280;4647;48.072;11.616;2023-12-14T11:22:14;95117.69;;;6.03;95.62
9225;BME280;4647;48.072;11.616;2023-12-14T11:24:53;95116.53;;;6.25;94.88
9225;BME280;4647;48.072;11.616;2023-12-14T11:27:29;95113.06;;;6.21;94.81
9225;BME280;4647;48.072;11.616;2023-12-14T11:30:02;95120.75;;;6.26;94.90
9225;BME280;4647;48.072;11.616;2023-12-14T11:32:30;95131.88;;;6.50;94.10
9225;BME280;4647;48.072;11.616;2023-12-14T11:34:59;95117.66;;;6.35;93.04
9225;BME280;4647;48.072;11.616;2023-12-14T11:37:27;95129.59;;;6.41;91.69
9225;BME280;4647;48.072;11.616;2023-12-14T11:39:58;95131.91;;;6.39;92.99
9225;BME280;4647;48.072;11.616;2023-12-14T11:42:27;95138.03;;;6.43;93.46
9225;BME280;4647;48.072;11.616;2023-12-14T11:44:57;95138.06;;;6.39;92.51
9225;BME280;4647;48.072;11.616;2023-12-14T11:47:28;95137.63;;;6.62;92.06
9225;BME280;4647;48.072;11.616;2023-12-14T11:49:56;95137.19;;;6.82;92.00
9225;BME280;4647;48.072;11.616;2023-12-14T11:52:25;95144.50;;;6.92;91.74
9225;BME280;4647;48.072;11.616;2023-12-14T11:54:53;95142.88;;;7.08;91.60
9225;BME280;4647;48.072;11.616;2023-12-14T11:57:22;95148.78;;;6.68;91.91
9225;BME280;4647;48.072;11.616;2023-12-14T11:59:50;95154.13;;;6.82;91.92
9225;BME280;4647;48.072;11.616;2023-12-14T12:02:23;95158.75;;;6.82;91.48
9225;BME280;4647;48.072;11.616;2023-12-14T12:04:55;95148.00;;;6.67;92.36
9225;BME280;4647;48.072;11.616;2023-12-14T12:07:24;95151.88;;;6.66;91.06
9225;BME280;4647;48.072;11.616;2023-12-14T12:09:52;95148.78;;;6.61;91.47
9225;BME280;4647;48.072;11.616;2023-12-14T12:12:21;95154.50;;;6.81;89.98
9225;BME280;4647;48.072;11.616;2023-12-14T12:14:49;95159.53;;;6.78;89.63
9225;BME280;4647;48.072;11.616;2023-12-14T12:17:21;95156.09;;;6.67;90.37
9225;BME280;4647;48.072;11.616;2023-12-14T12:19:50;95156.84;;;6.75;90.49
9225;BME280;4647;48.072;11.616;2023-12-14T12:22:21;95164.16;;;6.74;89.70
9225;BME280;4647;48.072;11.616;2023-12-14T12:24:49;95165.31;;;6.70;90.09
9225;BME280;4647;48.072;11.616;2023-12-14T12:27:18;95168.75;;;6.77;89.36
9225;BME280;4647;48.072;11.616;2023-12-14T12:29:46;95163.78;;;6.58;88.85
9225;BME280;4647;48.072;11.616;2023-12-14T12:32:15;95163.75;;;6.62;90.25
9225;BME280;4647;48.072;11.616;2023-12-14T12:34:44;95167.22;;;6.73;89.46
9225;BME280;4647;48.072;11.616;2023-12-14T12:37:12;95169.56;;;6.64;91.25
9225;BME280;4647;48.072;11.616;2023-12-14T12:39:44;95174.91;;;6.89;90.13
9225;BME280;4647;48.072;11.616;2023-12-14T12:42:12;95177.97;;;6.94;89.69
9225;BME280;4647;48.072;11.616;2023-12-14T12:44:40;95180.25;;;7.03;88.63
9225;BME280;4647;48.072;11.616;2023-12-14T12:47:09;95184.88;;;6.95;89.00
9225;BME280;4647;48.072;11.616;2023-12-14T12:49:37;95193.72;;;7.03;89.29
9225;BME280;4647;48.072;11.616;2023-12-14T12:52:06;95189.13;;;6.86;89.36
9225;BME280;4647;48.072;11.616;2023-12-14T12:54:35;95186.41;;;6.96;89.23
9225;BME280;4647;48.072;11.616;2023-12-14T12:57:06;95196.44;;;6.74;88.90
9225;BME280;4647;48.072;11.616;2023-12-14T12:59:34;95185.69;;;6.53;89.78
9225;BME280;4647;48.072;11.616;2023-12-14T13:02:03;95197.59;;;6.59;89.99
9225;BME280;4647;48.072;11.616;2023-12-14T13:04:32;95193.38;;;6.76;89.61
9225;BME280;4647;48.072;11.616;2023-12-14T13:07:02;95192.22;;;6.88;89.21
9225;BME280;4647;48.072;11.616;2023-12-14T13:09:32;95197.97;;;6.83;90.03
9225;BME280;4647;48.072;11.616;2023-12-14T13:12:00;95207.59;;;6.87;89.62
9225;BME280;4647;48.072;11.616;2023-12-14T13:14:32;95205.28;;;6.96;90.11
9225;BME280;4647;48.072;11.616;2023-12-14T13:17:00;95217.94;;;7.17;88.67
9225;BME280;4647;48.072;11.616;2023-12-14T13:19:29;95211.84;;;6.88;89.20
9225;BME280;4647;48.072;11.616;2023-12-14T13:21:57;95222.59;;;6.88;89.54
9225;BME280;4647;48.072;11.616;2023-12-14T13:24:27;95217.63;;;6.65;90.07
9225;BME280;4647;48.072;11.616;2023-12-14T13:26:55;95234.16;;;6.50;91.02
9225;BME280;4647;48.072;11.616;2023-12-14T13:29:24;95235.69;;;6.43;91.48
9225;BME280;4647;48.072;11.616;2023-12-14T13:31:55;95238.38;;;6.40;91.99